Time;durP1;ratioP1;P1;durP2;ratioP2;P2;SDS_P1;SDS_P2;PMS_P1;PMS_P2;Temp;Humidity;BMP_temperature;BMP_pressure;BME280_temperature;BME280_humidity;BME280_pressure;Samples;Min_cycle;Max_cycle;Signal;HPM_P1;HPM_P2
2022/01/23 00:00:47;;;;;;;22.27;15.32;;;;;;;5.08;85.47;102012.53;5028383;28;20051;-73
2022/01/23 00:03:19;;;;;;;20.35;15.40;;;;;;;5.15;85.58;102022.44;5029712;28;20048;-73
2022/01/23 00:05:50;;;;;;;20.67;14.43;;;;;;;5.21;86.27;102024.41;5030792;28;20061;-73
2022/01/23 00:08:20;;;;;;;15.90;12.40;;;;;;;5.17;87.94;102015.53;5030887;28;20507;-73
2022/01/23 00:10:46;;;;;;;16.65;10.85;;;;;;;5.23;89.28;102000.06;5031120;28;20037;-74
2022/01/23 00:13:25;;;;;;;15.48;9.18;;;;;;;5.28;89.79;102003.75;5031056;28;20034;-73
2022/01/23 00:18:34;;;;;;;12.23;8.55;;;;;;;5.45;91.38;101996.56;5028203;28;20038;-74
2022/01/23 00:21:00;;;;;;;13.95;9.38;;;;;;;5.45;91.77;102006.16;5029579;28;20037;-74
2022/01/23 00:30:17;;;;;;;11.60;8.73;;;;;;;5.44;92.49;102014.81;5029910;28;20033;-74
2022/01/23 00:31:44;;;;;;;12.95;9.00;;;;;;;5.46;93.32;102007.94;5033334;28;20530;-74
2022/01/23 00:34:09;;;;;;;12.90;8.88;;;;;;;5.45;93.63;102008.78;5034623;28;20059;-74
2022/01/23 00:36:35;;;;;;;12.07;8.98;;;;;;;5.46;93.63;102015.78;5034258;28;20492;-74
2022/01/23 00:39:00;;;;;;;14.93;10.27;;;;;;;5.46;93.84;102015.78;5034450;28;20502;-74
2022/01/23 00:41:26;;;;;;;11.27;9.15;;;;;;;5.43;93.79;102028.78;5034546;28;20129;-74
2022/01/23 00:43:53;;;;;;;12.63;8.82;;;;;;;5.43;94.15;102029.66;5034483;28;20033;-73
2022/01/23 00:51:22;;;;;;;12.38;8.73;;;;;;;5.39;95.03;102039.94;5033082;28;20043;-74
2022/01/23 00:53:47;;;;;;;10.20;7.97;;;;;;;5.37;95.21;102033.75;5033786;28;20121;-73
2022/01/23 00:56:13;;;;;;;15.05;10.13;;;;;;;5.32;95.55;102035.28;5031482;28;20172;-73
2022/01/23 00:58:38;;;;;;;11.57;8.65;;;;;;;5.37;95.90;102033.75;5033915;28;20030;-73
2022/01/23 01:01:03;;;;;;;13.90;9.30;;;;;;;5.36;95.80;102031.97;5032860;28;20040;-73
2022/01/23 01:03:29;;;;;;;15.80;10.70;;;;;;;5.36;96.12;102034.59;5033625;28;20407;-73
2022/01/23 01:05:54;;;;;;;15.10;10.55;;;;;;;5.41;95.99;102046.13;5033195;28;20053;-73
2022/01/23 01:08:21;;;;;;;11.07;8.45;;;;;;;5.44;95.82;102046.25;5032589;28;20049;-73
2022/01/23 01:11:53;;;;;;;12.48;9.25;;;;;;;5.39;95.79;102053.91;5025548;28;20038;-73
2022/01/23 01:35:24;;;;;;;11.77;8.30;;;;;;;5.29;95.89;102041.28;5030433;28;20044;-73
2022/01/23 01:37:50;;;;;;;11.57;8.15;;;;;;;5.28;96.07;102043.03;5031944;28;20029;-73
2022/01/23 01:40:16;;;;;;;14.70;8.60;;;;;;;5.29;96.17;102046.53;5032043;28;20040;-73
2022/01/23 01:42:41;;;;;;;15.35;8.73;;;;;;;5.26;95.68;102036.81;5032202;28;20511;-73
2022/01/23 01:45:07;;;;;;;13.63;8.60;;;;;;;5.31;95.74;102030.91;5031630;28;20519;-73
2022/01/23 01:47:48;;;;;;;11.55;7.78;;;;;;;5.28;95.93;102024.69;5031980;28;20049;-73
2022/01/23 01:50:15;;;;;;;12.93;7.47;;;;;;;5.22;95.62;102015.72;5029387;28;20112;-73
2022/01/23 01:52:41;;;;;;;10.95;7.68;;;;;;;5.27;95.48;102012.47;5031947;28;20195;-73
2022/01/23 01:55:10;;;;;;;10.40;7.05;;;;;;;5.25;95.49;102019.34;5031690;28;20029;-73
2022/01/23 01:57:51;;;;;;;10.73;7.07;;;;;;;5.22;95.23;102019.22;5031661;28;20431;-73
2022/01/23 02:00:47;;;;;;;11.15;7.43;;;;;;;5.22;95.24;102010.50;5032325;28;20056;-73
2022/01/23 02:08:17;;;;;;;8.65;6.78;;;;;;;5.20;95.34;102015.66;5028531;28;20120;-73
2022/01/23 02:08:51;;;;;;;7.70;5.85;;;;;;;5.20;95.44;102041.84;5029439;28;20458;-73
2022/01/23 02:11:32;;;;;;;9.32;5.93;;;;;;;5.21;95.37;102046.25;5031643;28;20041;-73
2022/01/23 02:17:41;;;;;;;10.07;7.40;;;;;;;5.21;95.79;102067.19;5021978;28;20132;-73
2022/01/23 02:22:56;;;;;;;7.20;5.78;;;;;;;5.26;95.12;102081.34;5027007;28;20041;-73
2022/01/23 02:55:46;;;;;;;7.85;5.82;;;;;;;5.32;93.89;102064.09;5028007;28;20116;-73
2022/01/23 02:58:16;;;;;;;11.40;7.40;;;;;;;5.32;93.78;102066.69;5030410;28;20065;-73
2022/01/23 03:00:50;;;;;;;8.55;6.63;;;;;;;5.37;93.27;102060.84;5025004;28;20108;-73
2022/01/23 03:03:56;;;;;;;8.85;6.80;;;;;;;5.34;93.34;102065.03;5029765;28;20034;-72
2022/01/23 03:14:36;;;;;;;7.75;5.25;;;;;;;5.35;92.12;102080.81;5030443;28;20124;-73
2022/01/23 03:25:34;;;;;;;5.75;3.92;;;;;;;5.32;91.47;102077.19;5028421;28;20108;-73
2022/01/23 03:33:29;;;;;;;5.43;3.67;;;;;;;5.27;91.12;102085.75;5011733;28;20133;-73
2022/01/23 03:35:55;;;;;;;5.85;4.10;;;;;;;5.32;90.52;102079.78;5018128;28;20049;-74
2022/01/23 03:38:20;;;;;;;4.65;3.33;;;;;;;5.33;90.68;102081.59;5031270;28;20115;-73
2022/01/23 03:40:46;;;;;;;4.93;3.47;;;;;;;5.28;90.68;102084.03;5030042;28;20044;-73
2022/01/23 03:43:14;;;;;;;5.50;3.20;;;;;;;5.30;90.91;102092.84;5031346;28;20029;-73
2022/01/23 03:50:48;;;;;;;4.35;2.65;;;;;;;5.26;90.41;102083.94;5029961;28;20038;-73
2022/01/23 03:53:26;;;;;;;4.97;3.33;;;;;;;5.26;90.34;102106.63;5022824;28;20025;-73
2022/01/23 03:55:53;;;;;;;4.18;2.45;;;;;;;5.28;90.68;102108.47;5029568;28;20121;-74
2022/01/23 03:58:19;;;;;;;6.07;3.45;;;;;;;5.26;90.71;102110.13;5029758;28;20403;-74
2022/01/23 04:00:44;;;;;;;6.07;3.72;;;;;;;5.26;90.58;102109.25;5029747;28;20116;-74
2022/01/23 04:03:10;;;;;;;4.88;3.33;;;;;;;5.26;90.74;102107.50;5033650;28;20506;-74
2022/01/23 04:05:35;;;;;;;5.97;3.55;;;;;;;5.26;90.47;102110.13;5033592;28;20120;-73
2022/01/23 04:08:01;;;;;;;5.85;3.38;;;;;;;5.26;90.96;102107.50;5033762;28;20412;-74
2022/01/23 04:10:27;;;;;;;5.57;3.55;;;;;;;5.32;90.32;102105.97;5033203;28;20038;-74
2022/01/23 04:13:08;;;;;;;4.88;3.17;;;;;;;5.28;90.52;102098.00;5029567;28;20029;-74
2022/01/23 04:15:44;;;;;;;5.70;3.22;;;;;;;5.30;90.77;102097.19;5027057;28;20021;-74
2022/01/23 04:31:53;;;;;;;4.97;3.60;;;;;;;5.39;90.13;102100.16;5033774;28;20467;-73
2022/01/23 04:34:29;;;;;;;5.72;4.18;;;;;;;5.36;90.01;102100.03;5030796;28;20095;-74
2022/01/23 05:02:12;;;;;;;8.27;5.65;;;;;;;5.27;91.52;102127.63;5035477;28;20093;-74
2022/01/23 05:04:56;;;;;;;7.43;5.30;;;;;;;5.26;91.86;102125.84;5033804;28;20048;-74
2022/01/23 05:07:45;;;;;;;7.88;5.75;;;;;;;5.19;92.27;102139.53;5031797;28;20051;-74
2022/01/23 05:10:16;;;;;;;6.93;5.70;;;;;;;5.18;92.58;102148.19;5033987;28;20533;-73
2022/01/23 05:12:54;;;;;;;7.03;5.43;;;;;;;5.15;92.77;102140.22;5028443;28;20044;-73
2022/01/23 05:15:20;;;;;;;7.22;5.50;;;;;;;5.13;93.34;102149.72;5027301;28;20029;-73
2022/01/23 05:17:45;;;;;;;8.07;6.35;;;;;;;5.12;93.33;102147.06;5033693;28;20045;-73
2022/01/23 05:20:14;;;;;;;8.85;6.15;;;;;;;5.12;93.49;102150.56;5033714;28;20032;-73
2022/01/23 05:22:45;;;;;;;8.68;6.70;;;;;;;5.11;93.75;102164.47;5032582;28;20033;-74
2022/01/23 05:25:18;;;;;;;10.35;7.25;;;;;;;5.10;93.55;102164.41;5032293;28;20299;-73
2022/01/23 05:27:45;;;;;;;11.00;7.30;;;;;;;5.06;94.00;102158.16;5028655;28;20044;-74
2022/01/23 05:30:10;;;;;;;9.38;6.57;;;;;;;5.07;94.20;102164.28;5025274;28;20275;-73
2022/01/23 05:32:40;;;;;;;9.07;6.45;;;;;;;5.08;94.28;102161.72;5033338;28;20025;-73
2022/01/23 05:35:07;;;;;;;9.13;6.57;;;;;;;5.06;93.89;102168.63;5032013;28;20037;-73
2022/01/23 05:37:33;;;;;;;10.32;6.45;;;;;;;5.09;94.32;102168.75;5032205;28;20033;-73
2022/01/23 05:40:00;;;;;;;10.10;7.15;;;;;;;5.09;94.17;102175.72;5032111;28;20121;-73
2022/01/23 05:42:27;;;;;;;9.10;7.03;;;;;;;5.12;94.12;102173.22;5015789;28;20071;-73
2022/01/23 05:44:52;;;;;;;9.10;6.85;;;;;;;5.08;94.30;102176.53;5015175;28;20057;-73
2022/01/23 05:47:18;;;;;;;8.95;6.85;;;;;;;5.11;94.09;102164.47;5030178;28;20037;-73
2022/01/23 05:49:55;;;;;;;9.68;7.40;;;;;;;5.11;94.49;102166.19;5027957;28;20037;-73
2022/01/23 05:52:34;;;;;;;8.85;6.90;;;;;;;5.09;94.02;102163.53;5029458;28;20381;-73
2022/01/23 05:55:18;;;;;;;8.95;6.32;;;;;;;5.04;94.38;102170.28;5031548;28;20091;-73
2022/01/23 05:57:56;;;;;;;11.10;7.88;;;;;;;4.97;94.41;102176.97;5028570;28;20033;-73
2022/01/23 06:00:34;;;;;;;9.30;6.88;;;;;;;4.96;93.85;102171.69;5028063;28;20035;-73
2022/01/23 06:03:05;;;;;;;9.73;7.22;;;;;;;4.94;94.51;102178.56;5031567;28;20036;-73
2022/01/23 06:05:39;;;;;;;10.00;6.57;;;;;;;4.92;94.15;102182.81;5031339;28;20021;-73
2022/01/23 06:08:10;;;;;;;9.80;7.32;;;;;;;4.92;94.25;102181.09;5031495;28;20538;-73
2022/01/23 06:10:53;;;;;;;8.50;6.07;;;;;;;4.96;93.94;102176.91;5029644;28;20056;-73
2022/01/23 06:13:19;;;;;;;9.52;6.63;;;;;;;4.95;93.78;102182.94;5046584;28;20120;-74
2022/01/23 06:15:45;;;;;;;8.25;6.13;;;;;;;4.92;93.85;102185.44;5031319;28;20395;-73
2022/01/23 06:18:10;;;;;;;8.32;6.10;;;;;;;4.90;93.85;102193.25;5031435;28;20041;-73
2022/01/23 06:21:04;;;;;;;8.55;6.63;;;;;;;4.91;93.56;102189.78;5012988;28;20094;-73
2022/01/23 06:24:04;;;;;;;9.38;6.50;;;;;;;4.95;93.73;102190.81;5029535;28;20041;-73
2022/01/23 06:26:52;;;;;;;9.07;6.38;;;;;;;4.95;94.06;102196.03;5030417;28;20044;-73
2022/01/23 06:29:18;;;;;;;9.30;6.72;;;;;;;4.94;94.27;102199.50;5032511;28;20456;-73
2022/01/23 06:31:46;;;;;;;10.07;7.72;;;;;;;4.96;93.82;102192.63;5032445;28;20041;-73
2022/01/23 06:34:13;;;;;;;9.38;6.80;;;;;;;4.97;94.05;102186.53;5032377;28;20034;-74
2022/01/23 06:36:39;;;;;;;10.80;8.00;;;;;;;4.93;94.91;102202.94;5032179;28;20025;-74
2022/01/23 06:39:06;;;;;;;9.73;7.22;;;;;;;4.94;94.43;102197.75;5030937;28;20521;-73
2022/01/23 06:41:32;;;;;;;9.45;7.15;;;;;;;4.90;95.09;102193.25;5030882;28;20025;-74
2022/01/23 06:44:26;;;;;;;10.57;7.53;;;;;;;4.84;95.13;102199.06;5023430;28;20054;-74
2022/01/23 06:46:52;;;;;;;13.10;7.68;;;;;;;4.89;95.14;102196.66;5029911;28;20073;-73
2022/01/23 06:49:18;;;;;;;11.35;8.77;;;;;;;4.89;95.13;102185.31;5014014;28;20064;-74
2022/01/23 06:51:44;;;;;;;10.00;8.20;;;;;;;4.96;94.97;102197.84;5030620;28;20499;-74
2022/01/23 06:54:11;;;;;;;10.20;8.00;;;;;;;4.97;94.46;102191.78;5030699;28;20039;-74
2022/01/23 06:56:37;;;;;;;11.20;8.73;;;;;;;5.01;94.19;102202.44;5026517;28;20087;-74
2022/01/23 06:59:03;;;;;;;13.57;9.13;;;;;;;5.01;94.06;102207.69;5030023;28;20025;-73
2022/01/23 07:01:28;;;;;;;14.02;8.88;;;;;;;4.99;94.35;102208.44;5029994;28;20544;-74
2022/01/23 07:04:15;;;;;;;10.98;7.90;;;;;;;5.02;94.02;102213.78;5029246;28;20025;-74
2022/01/23 07:06:53;;;;;;;11.15;8.00;;;;;;;5.02;94.00;102208.56;5030522;28;20499;-74
2022/01/23 07:09:30;;;;;;;10.13;8.07;;;;;;;4.98;93.72;102214.50;5022460;28;20659;-74
2022/01/23 07:12:25;;;;;;;11.70;8.48;;;;;;;5.01;94.32;102230.34;5028616;28;20052;-74
2022/01/23 07:15:08;;;;;;;12.05;9.10;;;;;;;4.99;94.41;102230.25;5028156;28;20025;-74
2022/01/23 07:17:42;;;;;;;12.07;9.65;;;;;;;5.02;94.16;102235.63;5026625;28;20026;-74
2022/01/23 07:20:25;;;;;;;12.70;8.65;;;;;;;5.08;93.79;102234.09;5021221;28;20032;-74
2022/01/23 07:22:54;;;;;;;11.13;8.45;;;;;;;5.13;93.95;102250.91;5021463;28;20108;-74
2022/01/23 07:25:20;;;;;;;11.40;8.88;;;;;;;5.16;93.24;102249.34;5028412;28;20159;-74
2022/01/23 07:27:53;;;;;;;12.68;10.02;;;;;;;5.11;93.32;102245.63;5020955;28;20055;-74
2022/01/23 07:30:35;;;;;;;;;;;;;;;5.09;93.89;102257.75;5041528;28;20040;-74
2022/01/23 07:33:02;;;;;;;14.38;9.30;;;;;;;5.08;94.01;102263.78;5012045;28;19967;-73
2022/01/23 07:35:28;;;;;;;12.00;9.27;;;;;;;5.07;93.75;102263.72;5028541;28;20048;-74
2022/01/23 07:37:53;;;;;;;13.27;10.35;;;;;;;5.02;94.33;102261.78;5027965;28;20029;-74
2022/01/23 07:40:45;;;;;;;14.38;10.10;;;;;;;5.01;94.94;102259.13;5020874;28;20135;-71
2022/01/23 07:43:17;;;;;;;12.45;9.52;;;;;;;4.95;95.38;102265.00;5020447;28;20033;-72
2022/01/23 07:46:01;;;;;;;13.38;9.35;;;;;;;5.01;95.69;102277.44;5019148;28;20056;-72
2022/01/23 07:49:03;;;;;;;14.00;10.05;;;;;;;5.02;95.34;102258.28;5041910;28;20618;-72
2022/01/23 07:51:37;;;;;;;13.55;9.50;;;;;;;5.03;95.34;102262.69;5024806;28;20060;-72
2022/01/23 07:54:33;;;;;;;12.65;9.88;;;;;;;5.05;95.42;102263.66;5015189;28;20415;-72
2022/01/23 07:57:30;;;;;;;12.88;9.43;;;;;;;5.14;94.82;102271.91;5016732;28;20064;-72
2022/01/23 08:00:34;;;;;;;11.35;8.95;;;;;;;5.13;94.75;102264.88;5019646;28;20048;-73
2022/01/23 08:03:03;;;;;;;14.25;10.52;;;;;;;5.16;94.54;102270.28;5020401;28;20079;-72
2022/01/23 08:05:44;;;;;;;12.40;9.47;;;;;;;5.23;94.19;102280.16;5021951;28;20033;-73
2022/01/23 08:08:28;;;;;;;16.33;9.98;;;;;;;5.26;93.90;102282.00;5028558;28;20136;-72
2022/01/23 08:11:04;;;;;;;13.05;9.88;;;;;;;5.26;93.70;102276.78;5027107;28;20038;-74
2022/01/23 08:13:30;;;;;;;11.90;10.00;;;;;;;5.33;93.49;102283.19;5026115;28;20034;-72
2022/01/23 08:15:55;;;;;;;14.18;10.52;;;;;;;5.23;93.39;102288.00;5028166;28;20092;-72
2022/01/23 08:18:21;;;;;;;11.45;9.20;;;;;;;5.34;93.00;102298.06;5019308;28;20033;-73
2022/01/23 08:20:47;;;;;;;17.30;10.80;;;;;;;5.32;92.99;102294.47;5028310;28;20033;-73
2022/01/23 08:23:13;;;;;;;15.43;11.30;;;;;;;5.35;93.39;102297.25;5027352;28;20040;-73
2022/01/23 08:25:38;;;;;;;14.30;10.40;;;;;;;5.39;93.02;102292.19;5027542;28;20816;-73
2022/01/23 08:28:04;;;;;;;11.65;9.02;;;;;;;5.49;92.53;102301.34;5027643;28;20037;-73
2022/01/23 08:30:29;;;;;;;10.20;8.50;;;;;;;5.50;91.85;102292.66;5026887;28;20025;-73
2022/01/23 08:32:54;;;;;;;13.23;9.73;;;;;;;5.52;92.18;102284.88;5029394;28;20572;-72
2022/01/23 08:35:20;;;;;;;13.18;9.85;;;;;;;5.59;92.02;102290.44;5025541;28;20048;-73
2022/01/23 08:37:47;;;;;;;12.35;9.77;;;;;;;5.52;92.60;102287.47;5027405;28;20040;-73
2022/01/23 08:43:07;;;;;;;15.52;11.20;;;;;;;5.36;93.88;102278.97;5017950;28;20045;-73
2022/01/23 08:45:32;;;;;;;13.05;9.65;;;;;;;5.36;94.14;102280.69;5029624;28;20037;-72
2022/01/23 08:47:57;;;;;;;16.23;10.38;;;;;;;5.38;94.06;102286.91;5030426;28;20083;-72
2022/01/23 08:50:23;;;;;;;12.00;9.27;;;;;;;5.33;94.07;102288.44;5034196;28;20034;-72
2022/01/23 08:52:48;;;;;;;15.20;10.20;;;;;;;5.39;94.29;102296.53;5031570;28;20038;-73
2022/01/23 08:55:13;;;;;;;14.30;9.98;;;;;;;5.35;93.84;102292.00;5033915;28;20037;-73
2022/01/23 08:57:39;;;;;;;13.43;9.75;;;;;;;5.39;94.22;102289.56;5033974;28;20037;-73
2022/01/23 09:00:05;;;;;;;12.57;8.82;;;;;;;5.46;93.23;102286.41;5034032;28;20041;-72
2022/01/23 09:02:31;;;;;;;11.90;9.45;;;;;;;5.55;93.13;102300.72;5033906;28;20072;-73
2022/01/23 09:04:56;;;;;;;12.07;9.27;;;;;;;5.57;92.83;102299.94;5033609;28;20081;-73
2022/01/23 09:07:22;;;;;;;11.85;8.80;;;;;;;5.64;91.90;102307.25;5033670;28;20030;-73
2022/01/23 09:09:47;;;;;;;12.90;9.10;;;;;;;5.65;92.62;102309.00;5032033;28;20033;-73
2022/01/23 09:14:40;;;;;;;14.95;10.70;;;;;;;5.68;92.03;102303.91;5021123;28;20209;-73
2022/01/23 09:17:06;;;;;;;14.07;10.35;;;;;;;5.66;92.13;102308.22;5027317;28;20101;-73
2022/01/23 09:19:32;;;;;;;13.73;9.82;;;;;;;5.67;92.48;102296.88;5025215;28;20125;-73
2022/01/23 09:21:58;;;;;;;16.63;11.18;;;;;;;5.74;92.79;102310.22;5032090;28;20120;-73
2022/01/23 09:24:25;;;;;;;13.93;10.63;;;;;;;5.75;91.56;102309.41;5033274;28;20041;-73
2022/01/23 09:26:53;;;;;;;15.15;10.60;;;;;;;5.67;92.62;102322.19;5027024;28;20084;-73
2022/01/23 09:29:33;;;;;;;15.30;10.48;;;;;;;5.63;92.70;102313.31;5029588;28;20044;-73
2022/01/23 09:32:00;;;;;;;15.60;10.68;;;;;;;5.61;93.33;102312.34;5031275;28;20043;-73
2022/01/23 09:34:28;;;;;;;11.20;9.13;;;;;;;5.61;93.25;102320.22;5033027;28;20037;-73
2022/01/23 09:36:55;;;;;;;12.10;9.23;;;;;;;5.65;93.38;102314.25;5033191;28;20033;-73
2022/01/23 09:39:21;;;;;;;12.50;9.02;;;;;;;5.63;93.20;102321.19;5033195;28;20033;-73
2022/01/23 09:42:09;;;;;;;11.73;8.80;;;;;;;5.66;92.66;102316.06;5033249;28;20645;-73
2022/01/23 09:44:41;;;;;;;12.68;9.25;;;;;;;5.65;92.45;102318.59;5024081;28;20037;-73
2022/01/23 09:47:08;;;;;;;16.17;10.50;;;;;;;5.69;92.23;102321.44;5029369;28;20041;-73
2022/01/23 09:49:33;;;;;;;11.73;9.30;;;;;;;5.71;92.64;102318.84;5025019;28;20513;-73
2022/01/23 09:52:01;;;;;;;13.48;9.65;;;;;;;5.75;93.24;102325.13;5033049;28;20045;-73
2022/01/23 09:54:29;;;;;;;14.70;10.25;;;;;;;5.85;92.74;102327.31;5032722;28;20045;-73
2022/01/23 09:56:59;;;;;;;11.52;9.25;;;;;;;5.88;92.04;102319.59;5033053;28;20037;-73
2022/01/23 09:59:26;;;;;;;12.55;9.55;;;;;;;5.91;91.90;102323.22;5027329;28;20047;-73
2022/01/23 10:01:55;;;;;;;14.68;9.55;;;;;;;5.89;92.62;102326.59;5032643;28;20045;-73
2022/01/23 10:04:21;;;;;;;14.40;10.00;;;;;;;5.85;92.27;102327.31;5028406;28;20877;-72
2022/01/23 10:06:47;;;;;;;14.07;9.85;;;;;;;5.87;92.80;102321.31;5032672;28;20120;-73
2022/01/23 10:09:14;;;;;;;13.43;10.05;;;;;;;5.86;93.02;102332.59;5031408;28;20045;-73
2022/01/23 10:11:42;;;;;;;14.43;11.05;;;;;;;5.81;93.58;102322.75;5031270;28;20694;-73
2022/01/23 10:14:08;;;;;;;12.40;9.43;;;;;;;5.83;93.13;102323.72;5032633;28;20037;-74
2022/01/23 10:16:33;;;;;;;13.27;9.40;;;;;;;5.80;93.12;102324.50;5032485;28;20041;-73
2022/01/23 10:19:01;;;;;;;13.98;10.07;;;;;;;5.79;92.19;102325.34;5032401;28;20033;-73
2022/01/23 10:21:28;;;;;;;12.45;9.27;;;;;;;5.78;91.88;102336.63;5032442;28;20033;-72
2022/01/23 10:23:55;;;;;;;11.63;9.35;;;;;;;5.78;91.82;102330.50;5032468;28;20033;-72
2022/01/23 10:26:47;;;;;;;12.75;9.40;;;;;;;5.71;92.67;102327.63;5032067;28;20120;-73
2022/01/23 10:29:26;;;;;;;13.50;10.43;;;;;;;5.75;92.01;102331.28;5029550;28;20038;-73
2022/01/23 10:32:14;;;;;;;13.10;9.95;;;;;;;5.90;92.28;102333.66;5032311;28;20041;-73
2022/01/23 10:35:02;;;;;;;14.18;9.93;;;;;;;5.94;91.98;102332.97;5029167;28;20511;-73
2022/01/23 10:37:39;;;;;;;11.40;8.32;;;;;;;5.90;91.90;102331.91;5027812;28;20042;-72
2022/01/23 10:40:36;;;;;;;13.73;9.68;;;;;;;6.00;92.36;102333.22;5025439;28;20045;-72
2022/01/23 10:48:38;;;;;;;13.75;9.55;;;;;;;6.06;91.39;102312.50;5027883;28;20124;-73
2022/01/23 10:51:14;;;;;;;;;;;;;;;6.07;90.57;102319.53;5032315;28;20480;-73
2022/01/23 10:54:07;;;;;;;12.43;9.82;;;;;;;6.20;90.58;102320.03;5031837;28;19939;-73
2022/01/23 10:56:54;;;;;;;12.95;9.57;;;;;;;6.23;90.17;102314.91;5028548;28;20104;-73
2022/01/23 10:59:21;;;;;;;15.00;9.20;;;;;;;6.30;89.84;102315.22;5019568;28;20045;-73
2022/01/23 11:02:04;;;;;;;11.38;9.18;;;;;;;6.45;89.34;102329.78;5031463;28;20049;-74
2022/01/23 11:04:34;;;;;;;11.73;8.95;;;;;;;6.38;88.75;102319.88;5031567;28;20029;-73
2022/01/23 11:07:05;;;;;;;13.05;9.77;;;;;;;6.36;89.23;102322.44;5033152;28;20120;-73
2022/01/23 11:09:36;;;;;;;11.48;8.65;;;;;;;6.39;89.01;102324.28;5038859;28;20117;-72
2022/01/23 11:12:13;;;;;;;13.07;10.02;;;;;;;6.34;89.76;102319.75;5035238;28;20484;-73
2022/01/23 11:17:26;;;;;;;12.32;8.95;;;;;;;6.37;89.56;102308.50;5027208;28;20056;-72
2022/01/23 11:19:52;;;;;;;12.65;8.98;;;;;;;6.29;90.56;102308.19;5031149;28;20041;-73
2022/01/23 11:22:24;;;;;;;11.27;8.80;;;;;;;6.37;90.15;102303.25;5031360;28;20036;-72
2022/01/23 11:24:50;;;;;;;13.82;9.82;;;;;;;6.32;90.69;102305.69;5031182;28;20488;-73
2022/01/23 11:27:18;;;;;;;11.77;9.05;;;;;;;6.32;90.88;102299.56;5030200;28;20137;-72
2022/01/23 11:29:59;;;;;;;13.27;9.98;;;;;;;6.34;90.71;102310.97;5031232;28;20384;-73
2022/01/23 11:32:27;;;;;;;12.02;9.60;;;;;;;6.56;89.57;102308.38;5025518;28;20044;-73
2022/01/23 11:35:00;;;;;;;11.68;9.10;;;;;;;6.66;89.32;102306.13;5026468;28;20029;-73
2022/01/23 11:37:26;;;;;;;12.25;8.43;;;;;;;6.61;89.39;102303.31;5031187;28;20045;-73
2022/01/23 11:39:57;;;;;;;10.98;8.50;;;;;;;6.48;88.82;102316.78;5031148;28;20030;-73
2022/01/23 11:50:43;;;;;;;10.00;7.50;;;;;;;6.34;89.11;102308.34;5024753;28;20029;-72
2022/01/23 11:56:23;;;;;;;9.80;7.68;;;;;;;6.34;89.97;102311.91;5028303;28;20108;-73
2022/01/23 11:58:51;;;;;;;10.02;7.93;;;;;;;6.31;90.02;102310.84;5030642;28;20044;-72
2022/01/23 12:01:19;;;;;;;11.73;8.02;;;;;;;6.34;90.23;102317.13;5025434;28;20029;-72
2022/01/23 12:04:06;;;;;;;10.32;7.65;;;;;;;6.32;90.49;102300.44;5026513;28;20373;-72
2022/01/23 12:06:33;;;;;;;11.15;7.30;;;;;;;6.24;89.98;102296.63;5023468;28;20042;-73
2022/01/23 12:09:15;;;;;;;10.10;8.10;;;;;;;6.27;90.34;102298.47;5025936;28;20479;-72
2022/01/23 12:11:49;;;;;;;10.40;8.02;;;;;;;6.34;89.94;102297.88;5026316;28;20042;-73
2022/01/23 12:16:58;;;;;;;11.88;8.43;;;;;;;6.60;90.54;102288.38;5026311;28;20454;-73
2022/01/23 12:19:26;;;;;;;9.98;7.38;;;;;;;6.63;88.70;102291.16;5023790;28;20038;-73
2022/01/23 12:21:53;;;;;;;9.68;7.60;;;;;;;6.61;88.41;102286.69;5026081;28;20116;-73
2022/01/23 12:24:22;;;;;;;10.00;7.50;;;;;;;6.60;88.45;102304.13;5031548;28;20064;-73
2022/01/23 12:26:48;;;;;;;9.85;7.20;;;;;;;6.68;88.55;102299.16;5032953;28;20083;-73
2022/01/23 12:29:25;;;;;;;10.50;8.18;;;;;;;6.70;88.18;102305.38;5025512;28;20034;-73
2022/01/23 12:32:19;;;;;;;8.90;6.85;;;;;;;6.69;88.55;102287.84;5030458;28;20108;-73
2022/01/23 12:34:50;;;;;;;10.15;7.80;;;;;;;6.65;88.63;102285.94;5030311;28;20455;-74
2022/01/23 12:37:16;;;;;;;11.07;7.78;;;;;;;6.60;88.99;102285.75;5030214;28;20213;-73
2022/01/23 12:39:42;;;;;;;12.95;8.52;;;;;;;6.50;89.29;102287.16;5034497;28;20132;-73
2022/01/23 12:42:07;;;;;;;9.98;7.65;;;;;;;6.55;88.91;102271.59;5034525;28;20049;-72
2022/01/23 12:44:38;;;;;;;9.80;7.35;;;;;;;6.61;88.94;102277.06;5034073;28;20088;-73
2022/01/23 12:47:06;;;;;;;10.18;7.72;;;;;;;6.64;89.82;102284.16;5034361;28;20037;-72
2022/01/23 12:49:33;;;;;;;10.70;8.02;;;;;;;6.62;89.51;102278.84;5034388;28;20043;-73
2022/01/23 12:52:05;;;;;;;10.80;7.32;;;;;;;6.65;89.11;102272.81;5030246;28;20052;-72
2022/01/23 12:54:32;;;;;;;12.98;9.07;;;;;;;6.68;88.75;102278.19;5034047;28;20026;-72
2022/01/23 12:57:07;;;;;;;11.52;8.55;;;;;;;6.81;88.74;102272.56;5034273;28;20029;-72
2022/01/23 12:59:35;;;;;;;9.45;6.72;;;;;;;6.83;88.67;102276.13;5034290;28;20503;-72
2022/01/23 13:02:06;;;;;;;11.30;8.45;;;;;;;6.79;88.80;102282.13;5034254;28;20132;-73
2022/01/23 13:04:42;;;;;;;10.05;7.55;;;;;;;6.79;89.15;102282.13;5033866;28;20579;-72
2022/01/23 13:07:16;;;;;;;9.00;6.38;;;;;;;6.84;89.38;102275.31;5034087;28;20042;-72
2022/01/23 13:12:26;;;;;;;11.15;8.10;;;;;;;6.83;89.88;102275.25;5032348;28;20095;-73
2022/01/23 13:15:15;;;;;;;9.50;7.40;;;;;;;6.84;89.29;102280.56;5032088;28;20049;-73
2022/01/23 13:31:53;;;;;;;12.55;9.18;;;;;;;6.62;91.17;102283.22;5032782;28;20072;-72
2022/01/23 13:34:33;;;;;;;10.18;7.10;;;;;;;6.73;91.23;102297.63;5032217;28;20056;-72
2022/01/23 13:37:06;;;;;;;11.00;8.07;;;;;;;6.72;90.37;102290.59;5024059;28;20036;-72
2022/01/23 13:39:59;;;;;;;9.75;7.30;;;;;;;6.72;90.93;102286.22;5027086;28;20491;-72
2022/01/23 13:48:04;;;;;;;10.13;7.20;;;;;;;6.77;90.33;102295.19;5026707;28;20048;-72
2022/01/23 13:53:26;;;;;;;9.32;6.72;;;;;;;6.70;90.40;102282.66;5032997;28;20033;-73
2022/01/23 13:58:38;;;;;;;9.68;7.22;;;;;;;6.69;90.34;102277.38;5029117;28;20136;-73
2022/01/23 14:01:34;;;;;;;9.77;6.78;;;;;;;6.77;90.21;102281.16;5032885;28;20121;-73
2022/01/23 14:04:00;;;;;;;10.85;7.75;;;;;;;6.65;90.31;102285.94;5029153;28;20037;-73
2022/01/23 14:06:25;;;;;;;11.27;7.90;;;;;;;6.61;90.98;102279.69;5032461;28;20041;-73
2022/01/23 14:09:08;;;;;;;12.20;8.15;;;;;;;6.61;90.87;102291.94;5032534;28;20048;-73
2022/01/23 14:11:34;;;;;;;;;;;;;;;6.59;91.13;102283.97;5028317;28;20031;-73
2022/01/23 14:14:14;;;;;;;8.15;6.07;;;;;;;6.61;91.05;102297.16;5031367;28;20443;-73
2022/01/23 14:16:40;;;;;;;11.73;6.40;;;;;;;6.51;91.24;102288.94;5032048;28;20174;-73
2022/01/23 14:19:14;;;;;;;7.20;5.22;;;;;;;6.52;91.02;102293.38;5031029;28;20037;-73
2022/01/23 14:21:41;;;;;;;10.18;4.70;;;;;;;6.51;90.60;102296.81;5030094;28;20045;-73
2022/01/23 14:24:06;;;;;;;9.02;5.25;;;;;;;6.54;90.76;102296.03;5032430;28;20863;-73
2022/01/23 14:26:32;;;;;;;6.85;4.35;;;;;;;6.58;90.92;102293.59;5032100;28;20042;-73
2022/01/23 14:29:04;;;;;;;6.32;3.92;;;;;;;6.64;90.56;102287.69;5032283;28;20736;-72
2022/01/23 14:31:36;;;;;;;6.68;4.50;;;;;;;6.70;90.56;102293.16;5032257;28;20136;-73
2022/01/23 14:34:04;;;;;;;5.90;4.15;;;;;;;6.74;89.71;102295.06;5031539;28;20400;-73
2022/01/23 14:36:38;;;;;;;7.82;4.47;;;;;;;6.75;89.60;102295.94;5031637;28;20072;-73
2022/01/23 14:39:06;;;;;;;5.32;3.53;;;;;;;6.77;89.99;102297.78;5028712;28;20044;-72
2022/01/23 14:41:34;;;;;;;6.30;4.05;;;;;;;6.79;89.97;102303.13;5027975;28;20045;-72
2022/01/23 14:44:02;;;;;;;7.70;4.70;;;;;;;6.81;89.84;102306.66;5023573;28;20516;-72
2022/01/23 14:46:27;;;;;;;6.95;4.15;;;;;;;6.72;89.83;102299.34;5030575;28;20041;-73
2022/01/23 14:48:59;;;;;;;5.75;3.70;;;;;;;6.73;89.76;102310.75;5028792;28;20041;-73
2022/01/23 14:51:26;;;;;;;5.55;3.10;;;;;;;6.73;89.24;102318.59;5027938;28;20120;-73
2022/01/23 14:53:52;;;;;;;6.18;3.50;;;;;;;6.70;89.74;102314.13;5031831;28;20047;-73
2022/01/23 14:56:19;;;;;;;5.13;2.70;;;;;;;6.76;89.51;102317.00;5028502;28;20124;-73
2022/01/23 14:58:45;;;;;;;6.05;3.80;;;;;;;6.77;89.70;102315.28;5031607;28;20042;-73
2022/01/23 15:01:14;;;;;;;6.90;3.53;;;;;;;6.78;89.46;102311.81;5031528;28;20039;-73
2022/01/23 15:03:43;;;;;;;5.30;3.58;;;;;;;6.77;89.34;102324.03;5031678;28;20044;-73